Time;durP1;ratioP1;P1;durP2;ratioP2;P2;SDS_P1;SDS_P2;PMS_P1;PMS_P2;Temp;Humidity;BMP_temperature;BMP_pressure;BME280_temperature;BME280_humidity;BME280_pressure;Samples;Min_cycle;Max_cycle;Signal;HPM_P1;HPM_P2
2023/09/11 00:00:35;;;;;;;17.33;8.20;;;20.50;99.90;;;;;;4994301;28;20049;-47
2023/09/11 00:03:01;;;;;;;11.95;7.38;;;20.40;99.90;;;;;;4994347;28;20394;-46
2023/09/11 00:05:26;;;;;;;19.45;8.05;;;20.40;99.90;;;;;;4993386;28;20027;-45
2023/09/11 00:07:52;;;;;;;19.67;8.25;;;20.40;99.90;;;;;;4994220;28;20104;-48
2023/09/11 00:10:17;;;;;;;15.27;7.70;;;20.40;99.90;;;;;;4992610;28;20041;-46
2023/09/11 00:12:43;;;;;;;12.70;8.15;;;20.50;99.90;;;;;;4992351;28;20038;-49
2023/09/11 00:15:09;;;;;;;18.92;8.40;;;20.50;99.90;;;;;;4993745;28;20038;-48
2023/09/11 00:17:34;;;;;;;16.98;7.10;;;20.50;99.90;;;;;;4993878;28;20460;-52
2023/09/11 00:20:00;;;;;;;21.77;7.63;;;20.50;99.90;;;;;;4993928;28;20110;-46
2023/09/11 00:22:25;;;;;;;18.45;7.57;;;20.40;99.90;;;;;;4993943;28;20121;-51
2023/09/11 00:24:51;;;;;;;13.38;8.32;;;20.40;99.90;;;;;;4975613;28;20414;-49
2023/09/11 00:27:16;;;;;;;18.40;8.93;;;20.40;99.90;;;;;;4974285;28;20113;-46
2023/09/11 00:29:42;;;;;;;20.90;9.07;;;20.30;99.90;;;;;;4980349;28;20027;-45
2023/09/11 00:32:07;;;;;;;19.40;8.00;;;20.20;99.90;;;;;;4993746;28;20018;-48
2023/09/11 00:34:33;;;;;;;21.38;8.95;;;20.10;99.90;;;;;;4992328;28;20030;-46
2023/09/11 00:36:58;;;;;;;19.23;7.53;;;20.00;99.90;;;;;;5005534;23;20079;-50
2023/09/11 00:39:24;;;;;;;20.02;7.57;;;19.90;99.90;;;;;;4974382;28;20050;-53
2023/09/11 00:41:49;;;;;;;20.00;7.65;;;19.80;99.90;;;;;;4974577;28;20030;-51
2023/09/11 00:44:15;;;;;;;17.45;7.57;;;19.80;99.90;;;;;;4972751;28;20046;-47
2023/09/11 00:46:41;;;;;;;13.57;7.95;;;19.80;99.90;;;;;;4974157;28;20027;-51
2023/09/11 00:49:08;;;;;;;18.77;7.85;;;19.80;99.90;;;;;;4974175;28;20023;-48
2023/09/11 00:51:35;;;;;;;22.35;8.52;;;19.80;99.90;;;;;;4974162;28;20030;-52
2023/09/11 00:54:01;;;;;;;17.67;7.95;;;19.70;99.90;;;;;;4973750;28;20019;-49
2023/09/11 00:56:26;;;;;;;17.40;10.13;;;19.70;99.90;;;;;;4974299;28;20027;-47
2023/09/11 00:58:53;;;;;;;20.17;10.27;;;19.70;99.90;;;;;;4974408;28;20051;-49
2023/09/11 01:01:21;;;;;;;27.98;11.80;;;19.60;99.90;;;;;;4972818;28;20410;-48
2023/09/11 01:03:47;;;;;;;28.20;8.77;;;19.60;99.90;;;;;;4973578;28;20023;-46
2023/09/11 01:06:13;;;;;;;20.20;8.80;;;19.60;99.90;;;;;;4973699;28;20081;-47
2023/09/11 01:08:39;;;;;;;15.13;7.80;;;19.70;99.90;;;;;;4973783;28;20054;-48
2023/09/11 01:11:04;;;;;;;15.23;8.70;;;19.70;99.90;;;;;;4973872;28;20023;-46
2023/09/11 01:13:30;;;;;;;22.63;8.80;;;19.70;99.90;;;;;;4973582;28;20019;-45
2023/09/11 01:16:18;;;;;;;24.25;8.80;;;19.70;99.90;;;;;;4973391;28;20023;-47
2023/09/11 01:18:51;;;;;;;26.27;9.27;;;19.50;99.90;;;;;;4973615;28;20478;-52
2023/09/11 01:21:38;;;;;;;21.55;9.30;;;19.40;99.90;;;;;;4972284;28;20081;-51
2023/09/11 01:24:31;;;;;;;20.52;9.82;;;19.30;99.90;;;;;;4973153;28;20450;-49
2023/09/11 01:27:09;;;;;;;21.85;9.68;;;19.20;99.90;;;;;;4972829;28;20047;-51
2023/09/11 01:29:37;;;;;;;26.58;8.88;;;19.20;99.90;;;;;;4973144;28;20022;-47
2023/09/11 01:32:05;;;;;;;19.77;8.70;;;19.20;99.90;;;;;;4971986;28;20022;-46
2023/09/11 01:34:31;;;;;;;17.58;10.32;;;19.00;99.90;;;;;;4973100;28;20080;-48
2023/09/11 01:36:56;;;;;;;25.33;10.85;;;19.00;99.90;;;;;;4973077;28;20039;-49
2023/09/11 01:39:23;;;;;;;23.70;9.98;;;18.90;99.90;;;;;;4972869;28;20031;-51
2023/09/11 01:41:52;;;;;;;15.80;8.38;;;18.90;99.90;;;;;;4973195;28;20109;-47
2023/09/11 01:44:30;;;;;;;19.40;8.63;;;18.90;99.90;;;;;;4972809;28;20118;-51
2023/09/11 01:46:57;;;;;;;19.70;8.93;;;18.90;99.90;;;;;;4972905;28;20027;-46
2023/09/11 01:49:24;;;;;;;25.70;7.90;;;18.90;99.90;;;;;;4971833;28;20126;-47
2023/09/11 01:51:52;;;;;;;22.58;8.73;;;19.00;99.90;;;;;;4971794;28;20113;-49
2023/09/11 01:54:18;;;;;;;21.45;8.73;;;18.90;99.90;;;;;;4971483;28;20022;-49
2023/09/11 01:56:44;;;;;;;39.00;10.15;;;19.00;99.90;;;;;;4972954;28;20034;-51
2023/09/11 01:59:09;;;;;;;20.40;9.07;;;19.00;99.90;;;;;;4972904;28;20032;-47
2023/09/11 02:01:35;;;;;;;22.88;11.25;;;18.90;99.90;;;;;;4972868;28;20102;-50
2023/09/11 02:04:00;;;;;;;15.82;8.50;;;18.90;99.90;;;;;;4972664;28;20038;-50
2023/09/11 02:06:26;;;;;;;17.27;8.98;;;18.90;99.90;;;;;;4971364;28;20023;-52
2023/09/11 02:08:55;;;;;;;19.23;9.63;;;18.90;99.90;;;;;;4972912;28;20027;-46
2023/09/11 02:11:22;;;;;;;23.77;10.57;;;18.90;99.90;;;;;;4972643;28;20019;-50
2023/09/11 02:13:47;;;;;;;22.23;9.40;;;18.90;99.90;;;;;;4972862;28;20027;-46
2023/09/11 02:16:13;;;;;;;24.77;9.32;;;18.70;99.90;;;;;;4972776;28;20039;-49
2023/09/11 02:18:39;;;;;;;26.75;9.70;;;18.60;99.90;;;;;;4972880;28;20042;-51
2023/09/11 02:21:05;;;;;;;23.55;9.77;;;18.60;99.90;;;;;;4972760;28;20031;-47
2023/09/11 02:23:31;;;;;;;20.77;9.57;;;18.60;99.90;;;;;;4972769;28;20250;-47
2023/09/11 02:25:56;;;;;;;17.70;9.05;;;18.60;99.90;;;;;;4972366;28;20070;-47
2023/09/11 02:28:22;;;;;;;24.33;9.38;;;18.60;99.90;;;;;;4975235;28;20026;-46
2023/09/11 02:30:47;;;;;;;25.63;10.25;;;18.60;99.90;;;;;;4976468;28;20023;-49
2023/09/11 02:33:13;;;;;;;18.35;9.40;;;18.60;99.90;;;;;;4976677;28;20042;-47
2023/09/11 02:35:38;;;;;;;25.58;10.10;;;18.60;99.90;;;;;;4976296;28;20031;-48
2023/09/11 02:38:04;;;;;;;19.80;10.10;;;18.60;99.90;;;;;;4976768;28;20086;-49
2023/09/11 02:40:29;;;;;;;28.63;9.98;;;18.50;99.90;;;;;;4976564;28;20122;-51
2023/09/11 02:42:55;;;;;;;23.42;9.88;;;18.40;99.90;;;;;;4976545;28;20031;-48
2023/09/11 02:45:20;;;;;;;20.88;10.45;;;18.40;99.90;;;;;;4975839;28;20042;-47
2023/09/11 02:47:46;;;;;;;28.80;10.80;;;18.40;99.90;;;;;;4976383;28;20549;-45
2023/09/11 02:50:11;;;;;;;20.75;9.85;;;18.40;99.90;;;;;;4976427;28;20161;-50
2023/09/11 02:52:37;;;;;;;27.83;11.73;;;18.30;99.90;;;;;;4976240;28;20034;-47
2023/09/11 02:55:03;;;;;;;23.65;10.88;;;18.20;99.90;;;;;;4975927;28;20067;-51
2023/09/11 02:57:29;;;;;;;22.50;10.50;;;18.20;99.90;;;;;;4976302;28;20030;-47
2023/09/11 02:59:55;;;;;;;22.33;10.43;;;18.20;99.90;;;;;;4976227;28;20035;-49
2023/09/11 03:02:23;;;;;;;21.02;9.70;;;18.10;99.90;;;;;;4976331;28;20034;-49
2023/09/11 03:04:52;;;;;;;26.90;11.68;;;18.10;99.90;;;;;;4975872;28;20055;-51
2023/09/11 03:07:18;;;;;;;25.67;10.13;;;18.10;99.90;;;;;;4976088;28;20042;-49
2023/09/11 03:09:44;;;;;;;16.95;10.13;;;18.00;99.90;;;;;;4974821;28;20030;-46
2023/09/11 03:12:10;;;;;;;16.38;9.85;;;18.10;99.90;;;;;;4976144;28;20494;-49
2023/09/11 03:14:36;;;;;;;24.98;11.98;;;18.10;99.90;;;;;;4975707;28;20106;-52
2023/09/11 03:17:01;;;;;;;23.48;10.80;;;18.20;99.90;;;;;;4975789;28;20054;-49
2023/09/11 03:19:27;;;;;;;25.50;11.25;;;18.20;99.90;;;;;;4975523;28;20041;-51
2023/09/11 03:21:54;;;;;;;30.10;12.07;;;18.30;99.90;;;;;;4975795;28;20039;-44
2023/09/11 03:24:20;;;;;;;19.15;11.48;;;18.30;99.90;;;;;;4975470;28;20027;-47
2023/09/11 03:26:46;;;;;;;19.48;10.75;;;18.30;99.90;;;;;;4975567;28;20027;-49
2023/09/11 03:29:12;;;;;;;22.67;11.43;;;18.40;99.90;;;;;;4975776;28;20087;-49
2023/09/11 03:31:37;;;;;;;15.32;10.93;;;18.30;99.90;;;;;;4975318;28;20131;-51
2023/09/11 03:34:03;;;;;;;24.38;11.00;;;18.40;99.90;;;;;;4974018;28;20086;-46
2023/09/11 03:36:28;;;;;;;21.35;11.60;;;18.30;99.90;;;;;;4975500;28;20119;-49
2023/09/11 03:38:54;;;;;;;19.83;11.48;;;18.30;99.90;;;;;;4975306;28;20038;-46
2023/09/11 03:41:19;;;;;;;23.55;13.40;;;18.30;99.90;;;;;;4975286;28;20107;-47
2023/09/11 03:43:45;;;;;;;23.45;11.13;;;18.20;99.90;;;;;;4975304;28;20042;-48
2023/09/11 03:46:13;;;;;;;23.05;11.57;;;18.20;99.90;;;;;;4975847;28;20035;-47
2023/09/11 03:48:39;;;;;;;23.27;11.27;;;18.00;99.90;;;;;;4975406;28;20026;-47
2023/09/11 03:51:05;;;;;;;22.73;12.15;;;17.90;99.90;;;;;;4975469;28;20427;-46
2023/09/11 03:53:30;;;;;;;25.40;12.77;;;17.90;99.90;;;;;;4975149;28;20110;-51
2023/09/11 03:55:56;;;;;;;18.92;12.57;;;17.90;99.90;;;;;;4974429;28;20034;-52
2023/09/11 03:58:21;;;;;;;17.10;11.63;;;17.80;99.90;;;;;;4975413;28;20150;-47
2023/09/11 04:00:47;;;;;;;25.58;11.00;;;17.80;99.90;;;;;;4975337;28;20027;-50
2023/09/11 04:03:13;;;;;;;18.00;10.80;;;17.70;99.90;;;;;;4975035;28;20040;-49
2023/09/11 04:05:39;;;;;;;16.98;10.60;;;17.70;99.90;;;;;;4974721;28;20032;-50
2023/09/11 04:08:05;;;;;;;16.98;10.48;;;17.80;99.90;;;;;;4974841;28;20495;-48
2023/09/11 04:10:30;;;;;;;17.88;11.82;;;17.80;99.90;;;;;;4974933;28;20082;-45
2023/09/11 04:12:56;;;;;;;23.10;11.73;;;17.70;99.90;;;;;;4974975;28;20562;-46
2023/09/11 04:15:21;;;;;;;18.95;11.10;;;17.70;99.90;;;;;;4973388;28;20093;-51
2023/09/11 04:17:47;;;;;;;18.85;11.65;;;17.80;99.90;;;;;;4974880;28;20376;-50
2023/09/11 04:20:12;;;;;;;22.77;11.73;;;17.70;99.90;;;;;;4974858;28;20053;-49
2023/09/11 04:22:37;;;;;;;21.60;12.30;;;17.70;99.90;;;;;;4975268;28;20026;-50
2023/09/11 04:25:03;;;;;;;19.65;11.23;;;17.70;99.90;;;;;;4974352;28;20035;-46
2023/09/11 04:27:29;;;;;;;28.55;10.55;;;17.70;99.90;;;;;;4973095;28;20501;-48
2023/09/11 04:29:56;;;;;;;14.32;10.00;;;17.70;99.90;;;;;;4974391;28;20041;-48
2023/09/11 04:32:21;;;;;;;18.30;11.15;;;17.60;99.90;;;;;;4974700;28;20026;-47
2023/09/11 04:34:47;;;;;;;15.43;9.65;;;17.60;99.90;;;;;;4974163;28;20023;-47
2023/09/11 04:37:13;;;;;;;20.75;10.93;;;17.60;99.90;;;;;;4974324;28;20093;-47
2023/09/11 04:39:40;;;;;;;23.92;11.20;;;17.60;99.90;;;;;;4974616;28;20478;-47
2023/09/11 04:42:05;;;;;;;22.13;9.77;;;17.60;99.90;;;;;;4974329;28;20033;-48
2023/09/11 04:44:31;;;;;;;16.58;10.43;;;17.60;99.90;;;;;;4974125;28;20018;-48
2023/09/11 04:46:57;;;;;;;22.45;11.43;;;17.60;99.90;;;;;;4974332;28;20046;-48
2023/09/11 04:49:22;;;;;;;17.88;9.88;;;17.60;99.90;;;;;;4974317;28;20038;-52
2023/09/11 04:51:49;;;;;;;18.70;10.45;;;17.50;99.90;;;;;;4973320;28;20027;-47
2023/09/11 04:54:14;;;;;;;17.42;9.63;;;17.60;99.90;;;;;;4974006;28;20026;-51
2023/09/11 04:56:40;;;;;;;21.42;9.73;;;17.50;99.90;;;;;;4974299;28;20035;-49
2023/09/11 04:59:06;;;;;;;13.20;10.00;;;17.60;99.90;;;;;;4974653;28;20482;-47
2023/09/11 05:01:31;;;;;;;18.73;10.13;;;17.70;99.90;;;;;;4974258;28;20058;-50
2023/09/11 05:03:57;;;;;;;15.68;10.35;;;17.60;99.90;;;;;;4973953;28;20091;-48
2023/09/11 05:06:22;;;;;;;13.18;8.68;;;17.60;99.90;;;;;;4972655;28;20031;-46
2023/09/11 05:08:49;;;;;;;21.33;10.43;;;17.60;99.90;;;;;;4974440;28;20019;-48
2023/09/11 05:11:15;;;;;;;14.68;9.60;;;17.60;99.90;;;;;;4974030;28;20106;-44
2023/09/11 05:13:40;;;;;;;16.33;10.15;;;17.60;99.90;;;;;;4974513;28;20070;-49
2023/09/11 05:16:06;;;;;;;20.38;11.07;;;17.70;99.90;;;;;;4973996;28;20059;-48
2023/09/11 05:18:31;;;;;;;14.98;10.48;;;17.60;99.90;;;;;;4974613;28;20035;-50
2023/09/11 05:20:57;;;;;;;22.15;11.23;;;17.80;99.90;;;;;;4974257;28;20035;-46
2023/09/11 05:23:24;;;;;;;21.33;12.10;;;17.90;99.90;;;;;;4974241;28;20054;-48
2023/09/11 05:25:49;;;;;;;17.77;10.93;;;17.90;99.90;;;;;;4973707;28;20039;-47
2023/09/11 05:28:15;;;;;;;19.48;11.73;;;18.00;99.90;;;;;;4974133;28;20038;-47
2023/09/11 05:30:40;;;;;;;24.73;11.00;;;18.00;99.90;;;;;;4972314;28;20454;-46
2023/09/11 05:33:06;;;;;;;15.57;10.45;;;18.00;99.90;;;;;;4973136;28;20102;-50
2023/09/11 05:35:31;;;;;;;13.60;9.77;;;18.10;99.90;;;;;;4973355;28;20058;-48
2023/09/11 05:37:57;;;;;;;15.43;10.20;;;18.10;99.90;;;;;;4973488;28;20038;-47
2023/09/11 05:40:23;;;;;;;19.65;11.68;;;18.20;99.90;;;;;;4973637;28;20031;-46
2023/09/11 05:42:48;;;;;;;22.35;13.13;;;18.20;99.90;;;;;;4973534;28;20034;-50
2023/09/11 05:45:14;;;;;;;20.08;11.93;;;18.20;99.90;;;;;;4973300;28;20054;-49
2023/09/11 05:47:40;;;;;;;24.13;12.20;;;18.20;99.90;;;;;;4973593;28;20094;-50
2023/09/11 05:50:07;;;;;;;18.42;11.45;;;18.20;99.90;;;;;;4973586;28;20558;-46
2023/09/11 05:52:33;;;;;;;21.13;11.50;;;18.20;99.90;;;;;;4973490;28;20019;-50
2023/09/11 05:54:58;;;;;;;21.90;11.30;;;18.10;99.90;;;;;;4974288;28;20045;-49
2023/09/11 05:57:24;;;;;;;17.85;11.35;;;18.10;99.90;;;;;;4973458;28;20031;-48
2023/09/11 05:59:49;;;;;;;20.42;11.27;;;18.10;99.90;;;;;;4973694;28;20062;-52
2023/09/11 06:02:15;;;;;;;20.90;11.65;;;18.20;99.90;;;;;;4972800;28;20015;-51
2023/09/11 06:04:40;;;;;;;19.00;11.88;;;18.30;99.90;;;;;;4972840;28;20022;-48
2023/09/11 06:07:06;;;;;;;17.70;12.27;;;18.30;99.90;;;;;;4972773;28;20105;-50
2023/09/11 06:09:31;;;;;;;20.52;12.77;;;18.30;99.90;;;;;;4973321;28;20562;-51
2023/09/11 06:11:57;;;;;;;18.02;12.27;;;18.30;99.90;;;;;;4973018;28;20034;-51
2023/09/11 06:14:23;;;;;;;16.60;12.10;;;18.30;99.90;;;;;;4972965;28;20027;-48
2023/09/11 06:16:49;;;;;;;19.20;13.02;;;18.30;99.90;;;;;;4973197;28;20516;-48
2023/09/11 06:19:14;;;;;;;23.52;13.25;;;18.30;99.90;;;;;;4973124;28;20478;-46
2023/09/11 06:21:43;;;;;;;22.42;13.00;;;18.30;99.90;;;;;;4973025;28;20150;-52
2023/09/11 06:24:09;;;;;;;22.67;13.30;;;18.30;99.90;;;;;;4972818;28;20773;-49
2023/09/11 06:26:34;;;;;;;21.02;12.90;;;18.30;99.90;;;;;;4972902;28;20031;-48
2023/09/11 06:29:00;;;;;;;24.42;12.75;;;18.30;99.90;;;;;;4972875;28;20027;-50
2023/09/11 06:31:26;;;;;;;21.02;12.75;;;18.40;99.90;;;;;;4972566;28;20018;-52
2023/09/11 06:33:52;;;;;;;21.83;12.23;;;18.50;99.90;;;;;;4972484;28;20456;-49
2023/09/11 06:36:21;;;;;;;19.27;10.63;;;19.00;99.90;;;;;;4973215;28;20038;-47
2023/09/11 06:38:46;;;;;;;17.10;10.52;;;18.80;99.90;;;;;;4971359;28;20027;-48
2023/09/11 06:41:12;;;;;;;14.35;10.85;;;19.10;99.90;;;;;;4972635;28;20049;-47
2023/09/11 06:43:37;;;;;;;17.38;10.60;;;19.30;99.90;;;;;;4972312;28;20477;-48
2023/09/11 06:46:03;;;;;;;13.98;9.65;;;19.70;99.90;;;;;;4971905;28;20045;-46
2023/09/11 06:48:29;;;;;;;16.98;10.43;;;20.00;99.90;;;;;;4971196;28;20023;-51
2023/09/11 06:50:54;;;;;;;15.85;10.07;;;20.10;99.90;;;;;;4972577;28;20047;-47
2023/09/11 06:53:20;;;;;;;12.27;9.55;;;20.30;99.90;;;;;;4972473;28;20474;-52
2023/09/11 06:55:49;;;;;;;24.10;9.95;;;20.80;99.90;;;;;;4972606;28;20422;-47
2023/09/11 06:58:15;;;;;;;19.52;9.30;;;21.70;99.90;;;;;;4971134;28;20027;-47
2023/09/11 07:00:41;;;;;;;12.77;8.63;;;22.60;99.90;;;;;;4971158;28;20041;-51
2023/09/11 07:03:06;;;;;;;12.13;8.20;;;23.60;99.90;;;;;;4970933;28;20031;-47
2023/09/11 07:05:32;;;;;;;12.00;6.68;;;24.60;99.90;;;;;;4971923;28;20478;-49
2023/09/11 07:07:58;;;;;;;12.50;8.10;;;25.30;99.90;;;;;;4972186;28;20027;-49
2023/09/11 07:10:24;;;;;;;19.15;7.90;;;26.20;99.90;;;;;;4972141;28;20037;-55
2023/09/11 07:12:50;;;;;;;16.35;7.78;;;26.90;99.90;;;;;;4972328;28;20042;-51
2023/09/11 07:15:17;;;;;;;14.00;7.88;;;27.40;99.90;;;;;;4972243;28;20030;-50
2023/09/11 07:17:44;;;;;;;9.60;7.20;;;27.80;99.90;;;;;;4975736;28;20110;-52
2023/09/11 07:20:11;;;;;;;19.42;9.25;;;28.30;99.90;;;;;;4975613;28;20018;-48
2023/09/11 07:22:36;;;;;;;13.43;7.57;;;28.70;98.70;;;;;;4975817;28;20031;-47
2023/09/11 07:25:03;;;;;;;11.77;7.70;;;29.10;98.20;;;;;;4976524;28;20074;-52
2023/09/11 07:27:33;;;;;;;13.82;7.50;;;29.20;97.60;;;;;;4976864;28;20018;-47
2023/09/11 07:29:59;;;;;;;8.90;7.50;;;29.20;97.80;;;;;;4976083;28;20019;-47
2023/09/11 07:32:25;;;;;;;10.85;8.00;;;29.10;97.30;;;;;;4976121;28;20027;-47
2023/09/11 07:34:51;;;;;;;15.10;7.97;;;29.20;97.40;;;;;;4975906;28;20031;-48
2023/09/11 07:37:17;;;;;;;27.00;7.88;;;29.50;97.00;;;;;;4974629;28;20121;-46
2023/09/11 07:39:42;;;;;;;13.38;7.18;;;29.50;96.60;;;;;;4975701;28;20023;-53
2023/09/11 07:42:08;;;;;;;18.80;6.97;;;29.70;96.30;;;;;;4975585;28;20031;-48
2023/09/11 07:44:33;;;;;;;20.88;7.97;;;29.80;96.10;;;;;;4975402;28;20429;-47
2023/09/11 07:46:59;;;;;;;18.67;8.68;;;29.90;95.90;;;;;;4975322;28;20399;-49
2023/09/11 07:49:24;;;;;;;12.07;6.45;;;29.90;95.50;;;;;;4975648;28;20062;-47
2023/09/11 07:51:50;;;;;;;13.40;6.90;;;29.60;96.10;;;;;;4975432;28;20019;-48
2023/09/11 07:54:16;;;;;;;12.95;6.90;;;29.90;96.30;;;;;;4974903;28;20461;-49
2023/09/11 07:56:41;;;;;;;14.38;7.82;;;30.10;95.60;;;;;;4972489;28;20033;-57
2023/09/11 07:59:07;;;;;;;17.73;7.50;;;30.70;95.30;;;;;;4967451;28;20487;-47
2023/09/11 08:01:32;;;;;;;16.45;7.97;;;31.00;94.80;;;;;;4974891;28;20043;-48
2023/09/11 08:03:57;;;;;;;15.90;7.57;;;31.10;94.60;;;;;;4974918;28;20177;-46
2023/09/11 08:06:23;;;;;;;14.63;6.63;;;31.00;94.40;;;;;;4975147;28;20547;-47
2023/09/11 08:08:49;;;;;;;27.38;7.70;;;31.20;94.20;;;;;;4974589;28;20015;-48
2023/09/11 08:11:17;;;;;;;14.52;6.88;;;31.50;94.00;;;;;;4974683;28;20037;-47
2023/09/11 08:13:46;;;;;;;21.65;7.30;;;31.60;93.60;;;;;;4974910;28;20034;-47
2023/09/11 08:16:12;;;;;;;16.77;7.13;;;31.70;93.50;;;;;;4974708;28;20136;-45
2023/09/11 08:18:37;;;;;;;16.58;7.35;;;31.50;93.40;;;;;;4974815;28;20055;-45
2023/09/11 08:21:04;;;;;;;22.80;8.80;;;31.40;93.30;;;;;;4973654;28;20105;-47
2023/09/11 08:23:30;;;;;;;25.45;7.70;;;31.60;93.30;;;;;;4974999;28;20019;-48
2023/09/11 08:25:56;;;;;;;18.85;7.20;;;31.50;93.60;;;;;;4975129;28;20058;-47
2023/09/11 08:28:22;;;;;;;20.45;7.78;;;31.30;93.60;;;;;;4976291;28;20025;-43
2023/09/11 08:30:50;;;;;;;20.95;8.65;;;30.90;94.00;;;;;;4976006;28;20526;-48
2023/09/11 08:33:15;;;;;;;23.58;8.10;;;30.30;94.60;;;;;;4973949;28;20027;-44
2023/09/11 08:35:41;;;;;;;20.80;9.05;;;29.50;95.90;;;;;;4973976;28;20066;-45
2023/09/11 08:38:06;;;;;;;18.92;7.82;;;28.80;96.70;;;;;;4974522;28;20034;-47
2023/09/11 08:40:32;;;;;;;20.45;8.18;;;28.80;97.40;;;;;;4974476;28;20034;-46
2023/09/11 08:42:58;;;;;;;24.10;7.85;;;29.20;97.40;;;;;;4972329;28;20027;-46
2023/09/11 08:45:26;;;;;;;23.42;8.57;;;29.70;96.80;;;;;;4972276;28;20089;-50
2023/09/11 08:47:55;;;;;;;20.33;8.05;;;30.40;95.80;;;;;;4967612;28;20375;-57
2023/09/11 08:50:25;;;;;;;16.25;7.00;;;30.90;95.00;;;;;;4974279;28;20034;-56
2023/09/11 08:52:51;;;;;;;19.33;8.10;;;31.60;94.50;;;;;;4973101;28;20027;-46
2023/09/11 08:55:19;;;;;;;23.10;7.60;;;31.80;93.70;;;;;;4973868;28;20027;-45
2023/09/11 08:57:46;;;;;;;15.45;7.35;;;32.00;93.60;;;;;;4973017;28;20349;-45
2023/09/11 09:00:13;;;;;;;21.45;7.13;;;32.40;93.20;;;;;;4970144;28;20530;-50
2023/09/11 09:02:39;;;;;;;14.68;6.28;;;32.80;92.80;;;;;;4972846;28;20054;-46
2023/09/11 09:05:06;;;;;;;24.27;6.35;;;33.30;92.40;;;;;;4967857;28;20059;-46
2023/09/11 09:07:32;;;;;;;16.50;6.85;;;33.50;92.30;;;;;;4970814;28;20026;-50
2023/09/11 09:09:59;;;;;;;18.45;6.47;;;34.10;91.50;;;;;;4973876;28;20038;-51
2023/09/11 09:12:26;;;;;;;12.57;5.93;;;34.40;90.80;;;;;;4973879;28;20022;-49
2023/09/11 09:14:52;;;;;;;17.20;6.20;;;34.50;90.50;;;;;;4973528;28;20031;-47
2023/09/11 09:17:17;;;;;;;14.85;5.63;;;34.20;90.70;;;;;;4973739;28;20509;-47
2023/09/11 09:19:43;;;;;;;17.45;6.30;;;34.30;90.70;;;;;;4973831;28;20038;-48
2023/09/11 09:22:10;;;;;;;14.18;6.32;;;34.40;90.70;;;;;;4973720;28;20035;-47
2023/09/11 09:24:37;;;;;;;23.45;6.90;;;34.10;90.40;;;;;;4965664;28;20503;-49
2023/09/11 09:27:06;;;;;;;19.25;6.72;;;33.70;90.90;;;;;;4954160;28;20039;-49
2023/09/11 09:29:36;;;;;;;12.13;6.68;;;33.50;91.20;;;;;;4954360;28;20031;-46
2023/09/11 09:32:03;;;;;;;17.48;6.90;;;32.90;91.60;;;;;;4954793;28;20066;-47
2023/09/11 09:34:32;;;;;;;12.20;6.53;;;32.40;92.40;;;;;;4973214;28;20546;-51
2023/09/11 09:36:57;;;;;;;13.77;6.50;;;32.10;92.80;;;;;;4972714;28;20039;-50
2023/09/11 09:39:28;;;;;;;17.90;7.10;;;31.80;93.30;;;;;;4972049;28;20368;-51
2023/09/11 09:41:57;;;;;;;44.05;30.58;;;31.60;93.00;;;;;;4966065;28;20059;-49
2023/09/11 09:44:34;;;;;;;18.25;7.18;;;31.40;93.10;;;;;;4963604;28;20081;-49
2023/09/11 09:47:10;;;;;;;16.95;7.50;;;31.20;93.30;;;;;;4971928;28;20494;-51
2023/09/11 09:49:45;;;;;;;15.38;7.10;;;31.10;93.40;;;;;;4970668;28;20058;-48
2023/09/11 09:52:11;;;;;;;;;;;31.00;93.80;;;;;;4969421;28;20054;-44
2023/09/11 09:54:51;;;;;;;15.07;6.70;;;30.90;94.60;;;;;;4972276;28;19906;-46
2023/09/11 09:57:19;;;;;;;15.25;6.65;;;30.90;94.60;;;;;;4972397;28;20082;-44
2023/09/11 09:59:54;;;;;;;13.75;7.32;;;30.80;94.40;;;;;;4973064;28;20046;-48
2023/09/11 10:02:30;;;;;;;12.63;6.35;;;30.70;94.30;;;;;;4969492;28;20057;-46
2023/09/11 10:04:58;;;;;;;19.48;7.25;;;30.70;94.20;;;;;;4971338;28;20469;-50
2023/09/11 10:07:44;;;;;;;12.90;7.25;;;30.60;94.60;;;;;;4965433;28;20077;-50
2023/09/11 10:10:21;;;;;;;14.88;7.43;;;30.50;95.20;;;;;;4972241;28;20492;-49
2023/09/11 10:12:50;;;;;;;18.25;6.18;;;30.40;95.40;;;;;;4969067;28;20073;-50
2023/09/11 10:15:16;;;;;;;19.88;6.70;;;30.40;95.10;;;;;;4953508;28;20023;-53
2023/09/11 10:17:42;;;;;;;24.67;7.30;;;30.40;95.50;;;;;;4953609;28;20553;-51
2023/09/11 10:20:09;;;;;;;12.50;6.75;;;30.30;95.70;;;;;;4953623;28;20081;-49
2023/09/11 10:22:34;;;;;;;12.18;6.40;;;30.30;96.10;;;;;;4953570;28;20051;-50
2023/09/11 10:25:00;;;;;;;19.80;8.45;;;30.30;96.20;;;;;;4955601;28;20703;-48
2023/09/11 10:27:26;;;;;;;16.05;6.15;;;30.20;96.00;;;;;;4973024;28;20027;-44
2023/09/11 10:29:59;;;;;;;12.75;6.40;;;30.00;95.80;;;;;;4973572;28;20106;-48
2023/09/11 10:32:35;;;;;;;13.05;7.30;;;29.80;96.70;;;;;;4972787;28;20022;-49
2023/09/11 10:35:02;;;;;;;17.80;7.72;;;29.80;96.90;;;;;;4972615;28;20177;-50
2023/09/11 10:37:30;;;;;;;14.02;6.40;;;29.70;97.40;;;;;;4972521;28;20030;-46
2023/09/11 10:39:59;;;;;;;15.40;7.00;;;29.40;98.00;;;;;;4972855;28;20019;-52
2023/09/11 10:42:24;;;;;;;16.15;6.57;;;29.20;98.60;;;;;;4972338;28;20031;-50
2023/09/11 10:44:53;;;;;;;16.88;6.20;;;29.10;99.40;;;;;;4972092;28;20073;-48
2023/09/11 10:47:19;;;;;;;15.35;7.35;;;29.10;98.20;;;;;;4968094;28;20031;-51
2023/09/11 10:49:49;;;;;;;16.23;7.70;;;28.90;98.30;;;;;;4973413;28;20117;-49
2023/09/11 10:52:15;;;;;;;11.75;7.03;;;28.90;98.50;;;;;;4976426;28;20030;-48
2023/09/11 10:54:41;;;;;;;11.45;6.10;;;28.80;99.10;;;;;;4959401;28;20463;-52
2023/09/11 10:57:07;;;;;;;19.17;8.07;;;28.80;99.50;;;;;;4972611;28;20085;-55
2023/09/11 10:59:34;;;;;;;21.75;7.03;;;28.70;99.20;;;;;;4975923;28;20529;-53
2023/09/11 11:01:59;;;;;;;15.80;5.68;;;28.60;99.60;;;;;;4976158;28;20086;-52
2023/09/11 11:04:25;;;;;;;12.13;5.85;;;28.50;99.30;;;;;;4975579;28;20407;-50
2023/09/11 11:06:55;;;;;;;17.38;6.70;;;28.40;99.60;;;;;;4975868;28;20039;-54
2023/09/11 11:09:31;;;;;;;31.13;21.27;;;28.30;99.80;;;;;;4975899;28;20394;-53
2023/09/11 11:12:06;;;;;;;18.63;6.65;;;28.10;99.90;;;;;;4976032;28;20391;-55
2023/09/11 11:14:32;;;;;;;21.30;10.88;;;27.90;99.90;;;;;;4972662;28;20096;-51
2023/09/11 11:17:08;;;;;;;13.55;6.65;;;27.80;99.90;;;;;;4967737;28;20049;-53
2023/09/11 11:20:00;;;;;;;12.63;5.72;;;27.80;99.90;;;;;;4972035;28;20566;-52
2023/09/11 11:22:44;;;;;;;17.90;6.57;;;27.60;99.90;;;;;;4971031;28;20030;-59
2023/09/11 11:25:10;;;;;;;13.68;6.65;;;27.40;99.90;;;;;;4968526;28;20030;-58
2023/09/11 11:27:38;;;;;;;20.55;6.45;;;27.40;99.90;;;;;;4973709;28;20390;-58
2023/09/11 11:30:05;;;;;;;18.45;7.95;;;27.40;99.90;;;;;;4973777;28;20023;-55
2023/09/11 11:32:32;;;;;;;19.70;6.55;;;27.40;99.90;;;;;;4968447;28;20085;-56
2023/09/11 11:35:02;;;;;;;21.52;7.20;;;27.40;99.90;;;;;;4971866;28;20030;-54
2023/09/11 11:37:31;;;;;;;14.20;5.85;;;27.30;99.90;;;;;;4973553;28;20030;-59
2023/09/11 11:39:56;;;;;;;23.13;6.95;;;27.30;99.90;;;;;;4972818;28;20040;-52
2023/09/11 11:42:22;;;;;;;9.57;5.68;;;27.30;99.90;;;;;;4972497;28;20019;-58
2023/09/11 11:44:48;;;;;;;15.60;6.18;;;27.20;99.90;;;;;;4971889;28;20692;-59
2023/09/11 11:47:14;;;;;;;17.05;5.93;;;27.30;99.90;;;;;;4973257;28;20031;-57
2023/09/11 11:49:40;;;;;;;15.35;6.43;;;27.10;99.90;;;;;;4972892;28;20034;-57
2023/09/11 11:52:05;;;;;;;20.00;7.30;;;27.20;99.90;;;;;;4969629;28;20061;-58
2023/09/11 11:54:33;;;;;;;19.52;6.63;;;27.20;99.90;;;;;;4971270;28;20405;-61
2023/09/11 11:57:01;;;;;;;15.75;6.55;;;27.30;99.90;;;;;;4973249;28;20122;-54
2023/09/11 11:59:35;;;;;;;24.13;7.15;;;27.30;99.90;;;;;;4973394;28;20030;-57
2023/09/11 12:02:01;;;;;;;15.13;6.38;;;27.30;99.90;;;;;;4973731;28;20113;-61
2023/09/11 12:04:26;;;;;;;18.40;5.50;;;27.20;99.90;;;;;;4974275;28;20066;-64
2023/09/11 12:06:54;;;;;;;21.48;7.00;;;27.20;99.90;;;;;;4973319;28;20034;-61
2023/09/11 12:09:21;;;;;;;13.88;5.90;;;27.30;99.90;;;;;;4971862;28;20114;-58
2023/09/11 12:11:49;;;;;;;24.38;6.43;;;27.30;99.90;;;;;;4973474;28;20031;-56
2023/09/11 12:14:15;;;;;;;23.20;6.20;;;27.40;99.90;;;;;;4969086;28;20027;-55
2023/09/11 12:16:41;;;;;;;32.17;9.68;;;27.40;99.90;;;;;;4972922;28;20450;-59
2023/09/11 12:19:07;;;;;;;47.38;22.92;;;27.40;99.60;;;;;;4971641;28;20030;-61
2023/09/11 12:21:33;;;;;;;33.53;11.43;;;27.50;98.30;;;;;;4973245;28;20552;-49
2023/09/11 12:24:00;;;;;;;17.65;5.22;;;27.60;98.50;;;;;;4968014;28;20039;-58
2023/09/11 12:26:29;;;;;;;15.98;5.60;;;27.60;97.50;;;;;;4972032;28;20037;-57
2023/09/11 12:28:55;;;;;;;40.15;7.40;;;27.70;98.40;;;;;;4974555;28;20070;-56
2023/09/11 12:31:22;;;;;;;21.42;5.80;;;27.70;98.40;;;;;;4974475;28;20494;-52